createdAt,value
2019-03-28T00:01:23.810Z,13.53
2019-03-28T00:03:53.267Z,13.63
2019-03-28T00:06:23.087Z,13.80
2019-03-28T00:08:52.760Z,13.60
2019-03-28T00:11:21.984Z,13.53
2019-03-28T00:13:51.282Z,13.33
2019-03-28T00:16:20.775Z,13.97
2019-03-28T00:18:50.097Z,14.30
2019-03-28T00:21:19.238Z,14.53
2019-03-28T00:23:49.922Z,13.97
2019-03-28T00:26:29.316Z,13.77
2019-03-28T00:28:50.162Z,13.93
2019-03-28T00:31:19.228Z,13.27
2019-03-28T00:33:48.356Z,13.57
2019-03-28T00:36:17.451Z,13.33
2019-03-28T00:38:47.035Z,13.23
2019-03-28T00:41:16.441Z,14.37
2019-03-28T00:43:45.916Z,13.30
2019-03-28T00:46:15.251Z,13.53
2019-03-28T00:48:44.575Z,13.90
2019-03-28T00:51:13.877Z,13.10
2019-03-28T00:53:43.375Z,13.57
2019-03-28T00:56:13.298Z,12.83
2019-03-28T00:58:42.748Z,13.90
2019-03-28T01:01:12.108Z,13.30
2019-03-28T01:03:41.237Z,14.33
2019-03-28T01:06:10.503Z,13.17
2019-03-28T01:08:39.792Z,12.90
2019-03-28T01:11:15.218Z,12.83
2019-03-28T01:13:44.557Z,12.10
2019-03-28T01:16:14.236Z,12.70
2019-03-28T01:18:44.011Z,13.33
2019-03-28T01:21:13.208Z,13.70
2019-03-28T01:23:42.363Z,13.40
2019-03-28T01:26:12.074Z,13.87
2019-03-28T01:28:41.472Z,12.33
2019-03-28T01:31:10.639Z,13.53
2019-03-28T01:33:39.978Z,13.70
2019-03-28T01:36:09.278Z,13.70
2019-03-28T01:38:38.578Z,14.07
2019-03-28T01:41:07.921Z,14.57
2019-03-28T01:43:37.613Z,14.53
2019-03-28T01:46:06.890Z,14.23
2019-03-28T01:48:36.190Z,15.63
2019-03-28T01:51:06.126Z,15.63
2019-03-28T01:53:35.411Z,15.93
2019-03-28T01:56:04.919Z,14.37
2019-03-28T01:58:34.418Z,14.87
2019-03-28T02:01:04.568Z,16.83
2019-03-28T02:03:33.839Z,15.23
2019-03-28T02:06:03.084Z,16.43
2019-03-28T02:08:32.447Z,16.73
2019-03-28T02:11:02.364Z,14.77
2019-03-28T02:13:31.518Z,14.77
2019-03-28T02:16:00.585Z,15.30
2019-03-28T02:18:29.794Z,16.00
2019-03-28T02:20:58.987Z,15.93
2019-03-28T02:23:28.248Z,15.67
2019-03-28T02:25:57.562Z,15.80
2019-03-28T02:28:26.850Z,15.77
2019-03-28T02:30:55.962Z,16.43
2019-03-28T02:33:25.568Z,17.00
2019-03-28T02:35:54.965Z,17.53
2019-03-28T02:38:24.261Z,16.63
2019-03-28T02:40:53.632Z,18.57
2019-03-28T02:43:22.728Z,20.17
2019-03-28T02:45:51.957Z,20.30
2019-03-28T02:48:21.673Z,20.53
2019-03-28T02:50:50.985Z,19.37
2019-03-28T02:53:20.284Z,20.80
2019-03-28T02:55:49.792Z,21.23
2019-03-28T02:58:19.156Z,21.27
2019-03-28T03:00:48.600Z,21.97
2019-03-28T03:03:18.035Z,22.03
2019-03-28T03:05:47.183Z,23.03
2019-03-28T03:08:16.488Z,22.77
2019-03-28T03:10:45.785Z,22.20
2019-03-28T03:13:15.233Z,23.00
2019-03-28T03:15:44.602Z,20.73
2019-03-28T03:18:13.682Z,21.43
2019-03-28T03:20:43.702Z,21.93
2019-03-28T03:23:12.977Z,21.57
2019-03-28T03:25:42.894Z,22.20
2019-03-28T03:28:12.123Z,21.47
2019-03-28T03:30:41.228Z,21.60
2019-03-28T03:33:10.929Z,21.83
2019-03-28T03:35:40.461Z,21.20
2019-03-28T03:38:09.627Z,20.27
2019-03-28T03:40:38.984Z,20.93
2019-03-28T03:43:08.131Z,19.70
2019-03-28T03:45:37.143Z,19.50
2019-03-28T03:48:06.293Z,19.30
2019-03-28T03:50:35.401Z,19.83
2019-03-28T03:53:04.392Z,20.43
2019-03-28T03:55:33.711Z,19.43
2019-03-28T03:58:15.353Z,20.10
2019-03-28T04:00:35.308Z,21.77
2019-03-28T04:03:05.069Z,20.37
2019-03-28T04:05:34.178Z,20.73
2019-03-28T04:08:03.747Z,21.30
2019-03-28T04:10:33.049Z,20.07
2019-03-28T04:13:02.616Z,22.10
2019-03-28T04:15:31.913Z,21.07
2019-03-28T04:18:01.240Z,22.20
2019-03-28T04:20:30.444Z,21.50
2019-03-28T04:22:59.886Z,22.47
2019-03-28T04:25:29.123Z,20.80
2019-03-28T04:27:58.403Z,23.53
2019-03-28T04:30:27.433Z,23.37
2019-03-28T04:32:57.025Z,22.77
2019-03-28T04:35:26.060Z,23.70
2019-03-28T04:37:55.308Z,24.07
2019-03-28T04:40:24.455Z,23.10
2019-03-28T04:42:53.567Z,24.90
2019-03-28T04:45:23.152Z,24.03
2019-03-28T04:47:52.143Z,24.80
2019-03-28T04:50:21.256Z,24.67
2019-03-28T04:52:52.744Z,22.77
2019-03-28T04:55:21.335Z,22.60
2019-03-28T04:57:50.500Z,21.50
2019-03-28T05:00:23.790Z,22.87
2019-03-28T05:02:53.004Z,22.73
2019-03-28T05:05:22.033Z,22.40
2019-03-28T05:07:51.537Z,21.83
2019-03-28T05:10:20.637Z,22.20
2019-03-28T05:12:49.935Z,23.10
2019-03-28T05:15:20.520Z,22.97
2019-03-28T05:17:50.400Z,22.33
2019-03-28T05:20:19.517Z,23.93
2019-03-28T05:22:48.723Z,23.60
2019-03-28T05:25:41.875Z,24.20
2019-03-28T05:28:11.435Z,22.80
2019-03-28T05:30:40.640Z,22.57
2019-03-28T05:33:09.722Z,20.90
2019-03-28T05:35:39.140Z,24.13
2019-03-28T05:38:08.277Z,22.50
2019-03-28T05:40:37.653Z,22.80
2019-03-28T05:43:06.945Z,23.53
2019-03-28T05:45:36.452Z,23.53
2019-03-28T05:48:06.045Z,23.00
2019-03-28T05:50:35.567Z,23.40
2019-03-28T05:53:04.656Z,24.50
2019-03-28T05:55:33.961Z,24.43
2019-03-28T05:58:03.464Z,23.77
2019-03-28T06:00:32.659Z,24.17
2019-03-28T06:03:01.781Z,23.87
2019-03-28T06:05:30.791Z,22.33
2019-03-28T06:08:00.046Z,20.93
2019-03-28T06:10:29.129Z,19.70
2019-03-28T06:13:02.100Z,21.83
2019-03-28T06:15:31.240Z,21.93
2019-03-28T06:18:00.445Z,19.60
2019-03-28T06:20:30.197Z,20.53
2019-03-28T06:22:59.435Z,18.73
2019-03-28T06:25:28.549Z,19.10
2019-03-28T06:27:57.687Z,19.30
2019-03-28T06:30:41.393Z,18.17
2019-03-28T06:33:10.605Z,17.73
2019-03-28T06:35:46.369Z,16.50
2019-03-28T06:38:15.714Z,16.83
2019-03-28T06:40:46.026Z,16.67
2019-03-28T06:43:15.969Z,16.90
2019-03-28T06:45:45.574Z,17.70
2019-03-28T06:48:16.589Z,17.10
2019-03-28T06:50:45.992Z,16.80
2019-03-28T06:53:15.227Z,15.70
2019-03-28T06:55:45.165Z,16.97
2019-03-28T06:58:14.631Z,16.40
2019-03-28T07:00:43.929Z,15.63
2019-03-28T07:03:13.321Z,15.10
2019-03-28T07:05:42.527Z,14.77
2019-03-28T07:08:11.735Z,15.60
2019-03-28T07:10:41.453Z,15.20
2019-03-28T07:13:10.598Z,14.73
2019-03-28T07:15:39.725Z,16.23
2019-03-28T07:18:08.997Z,13.53
2019-03-28T07:20:39.752Z,14.20
2019-03-28T07:23:09.092Z,14.20
2019-03-28T07:25:39.498Z,14.23
2019-03-28T07:28:09.057Z,14.07
2019-03-28T07:30:38.426Z,13.90
2019-03-28T07:33:07.660Z,12.77
2019-03-28T07:35:36.877Z,13.93
2019-03-28T07:38:06.040Z,13.77
2019-03-28T07:40:35.270Z,13.93
2019-03-28T07:43:04.915Z,13.63
2019-03-28T07:45:34.639Z,13.23
2019-03-28T07:48:03.809Z,13.37
2019-03-28T07:50:33.622Z,12.10
2019-03-28T07:53:03.474Z,13.07
2019-03-28T07:55:32.711Z,12.50
2019-03-28T07:58:01.865Z,11.87
2019-03-28T08:00:31.105Z,11.83
2019-03-28T08:03:00.203Z,11.30
2019-03-28T08:05:29.845Z,11.10
2019-03-28T08:07:59.025Z,11.33
2019-03-28T08:10:28.532Z,10.80
2019-03-28T08:12:57.614Z,10.37
2019-03-28T08:15:26.671Z,9.77
2019-03-28T08:17:56.083Z,9.20
2019-03-28T08:20:25.327Z,9.57
2019-03-28T08:22:54.492Z,10.37
2019-03-28T08:25:24.079Z,9.23
2019-03-28T08:27:53.443Z,9.57
2019-03-28T08:30:25.525Z,9.17
2019-03-28T08:32:54.653Z,9.27
2019-03-28T08:35:23.786Z,8.87
2019-03-28T08:37:53.574Z,8.30
2019-03-28T08:40:34.793Z,8.23
2019-03-28T08:43:04.345Z,7.50
2019-03-28T08:45:34.405Z,7.00
2019-03-28T08:48:04.186Z,7.30
2019-03-28T08:50:33.206Z,6.57
2019-03-28T08:53:02.317Z,6.53
2019-03-28T08:55:31.765Z,6.50
2019-03-28T08:58:01.155Z,7.07
2019-03-28T09:00:35.134Z,5.83
2019-03-28T09:03:01.348Z,6.13
2019-03-28T09:05:30.962Z,5.17
2019-03-28T09:08:00.103Z,5.80
2019-03-28T09:10:29.415Z,6.37
2019-03-28T09:12:59.120Z,5.80
2019-03-28T09:15:28.205Z,5.30
2019-03-28T09:18:00.172Z,5.27
2019-03-28T09:20:28.057Z,6.00
2019-03-28T09:22:57.176Z,5.40
2019-03-28T09:25:26.261Z,5.17
2019-03-28T09:27:55.690Z,4.87
2019-03-28T09:30:47.283Z,4.87
2019-03-28T09:33:07.124Z,5.20
2019-03-28T09:35:36.647Z,4.87
2019-03-28T09:38:05.996Z,5.20
2019-03-28T09:40:35.335Z,5.83
2019-03-28T09:43:04.820Z,5.00
2019-03-28T09:45:33.924Z,12.70
2019-03-28T09:48:04.872Z,6.17
2019-03-28T09:50:34.180Z,7.70
2019-03-28T09:53:03.338Z,6.20
2019-03-28T09:55:32.662Z,6.40
2019-03-28T09:58:01.885Z,8.83
2019-03-28T10:00:32.815Z,6.57
2019-03-28T10:03:02.999Z,8.27
2019-03-28T10:05:32.530Z,6.17
2019-03-28T10:08:03.071Z,8.50
2019-03-28T10:10:35.636Z,7.80
2019-03-28T10:13:05.957Z,9.37
2019-03-28T10:15:36.875Z,6.67
2019-03-28T10:18:05.983Z,7.47
2019-03-28T10:20:35.078Z,7.27
2019-03-28T10:23:04.209Z,7.73
2019-03-28T10:25:33.821Z,8.30
2019-03-28T10:28:03.106Z,11.83
2019-03-28T10:30:37.918Z,8.50
2019-03-28T10:33:07.319Z,7.37
2019-03-28T10:35:36.666Z,12.13
2019-03-28T10:38:06.314Z,9.80
2019-03-28T10:40:36.369Z,11.53
2019-03-28T10:43:05.865Z,9.30
2019-03-28T10:45:35.120Z,8.53
2019-03-28T10:48:04.472Z,10.40
2019-03-28T10:50:42.302Z,9.03
2019-03-28T10:53:05.204Z,9.83
2019-03-28T10:55:34.674Z,8.90
2019-03-28T10:58:17.161Z,9.50
2019-03-28T11:00:35.725Z,9.40
2019-03-28T11:03:05.235Z,12.63
2019-03-28T11:05:34.461Z,10.30
2019-03-28T11:08:03.659Z,10.33
2019-03-28T11:10:36.511Z,11.63
2019-03-28T11:13:09.180Z,14.33
2019-03-28T11:15:36.566Z,14.17
2019-03-28T11:18:06.799Z,11.40
2019-03-28T11:20:39.624Z,11.27
2019-03-28T11:23:07.250Z,10.33
2019-03-28T11:25:36.964Z,20.17
2019-03-28T11:28:06.191Z,11.37
2019-03-28T11:30:35.528Z,11.87
2019-03-28T11:33:06.546Z,18.20
2019-03-28T11:35:36.035Z,10.93
2019-03-28T11:38:05.512Z,11.33
2019-03-28T11:40:34.985Z,11.93
2019-03-28T11:43:04.332Z,12.60
2019-03-28T11:45:33.923Z,13.00
2019-03-28T11:48:03.348Z,11.10
2019-03-28T11:50:33.956Z,10.67
2019-03-28T11:53:03.142Z,10.43
2019-03-28T11:55:32.440Z,7.93
2019-03-28T11:58:01.959Z,9.50
2019-03-28T12:00:31.389Z,9.93
2019-03-28T12:03:00.497Z,8.63
2019-03-28T12:05:29.774Z,9.10
2019-03-28T12:07:58.910Z,11.70
2019-03-28T12:10:28.281Z,10.47
2019-03-28T12:12:57.410Z,8.03
2019-03-28T12:15:26.847Z,9.80
2019-03-28T12:17:55.939Z,9.97
2019-03-28T12:20:25.424Z,17.07
2019-03-28T12:22:56.088Z,8.73
2019-03-28T12:25:25.682Z,10.93
2019-03-28T12:27:55.030Z,8.33
2019-03-28T12:30:25.042Z,9.03
2019-03-28T12:32:54.169Z,8.40
2019-03-28T12:35:24.081Z,9.13
2019-03-28T12:37:53.547Z,8.20
2019-03-28T12:40:22.875Z,8.87
2019-03-28T12:42:52.601Z,13.20
2019-03-28T12:45:22.137Z,8.93
2019-03-28T12:47:51.398Z,7.73
2019-03-28T12:50:20.739Z,9.40
2019-03-28T12:52:50.114Z,8.40
2019-03-28T12:55:20.447Z,8.47
2019-03-28T12:57:50.075Z,9.57
2019-03-28T13:00:22.652Z,10.47
2019-03-28T13:02:51.777Z,11.73
2019-03-28T13:05:21.253Z,9.63
2019-03-28T13:07:51.008Z,10.63
2019-03-28T13:10:21.492Z,10.77
2019-03-28T13:12:50.663Z,9.70
2019-03-28T13:15:20.146Z,10.10
2019-03-28T13:17:49.216Z,10.07
2019-03-28T13:20:21.958Z,10.03
2019-03-28T13:22:52.019Z,15.43
2019-03-28T13:25:21.172Z,10.43
2019-03-28T13:27:50.598Z,10.27
2019-03-28T13:30:20.394Z,10.53
2019-03-28T13:32:49.720Z,9.50
2019-03-28T13:35:18.794Z,10.00
2019-03-28T13:37:48.305Z,12.30
2019-03-28T13:40:17.620Z,8.47
2019-03-28T13:42:47.006Z,7.67
2019-03-28T13:45:17.131Z,11.60
2019-03-28T13:47:46.409Z,8.37
2019-03-28T13:50:16.500Z,19.53
2019-03-28T13:52:45.758Z,14.67
2019-03-28T13:55:15.081Z,9.50
2019-03-28T13:57:44.411Z,9.10
2019-03-28T14:00:14.264Z,13.37
2019-03-28T14:02:55.564Z,8.30
2019-03-28T14:05:18.751Z,8.03
2019-03-28T14:07:48.972Z,9.50
2019-03-28T14:10:21.492Z,9.30
2019-03-28T14:12:50.429Z,8.30
2019-03-28T14:15:19.707Z,8.53
2019-03-28T14:17:49.209Z,14.10
2019-03-28T14:20:22.120Z,7.17
2019-03-28T14:22:50.207Z,5.80
2019-03-28T14:25:19.573Z,6.50
2019-03-28T14:27:49.115Z,6.47
2019-03-28T14:30:18.784Z,4.83
2019-03-28T14:32:53.481Z,5.30
2019-03-28T14:35:20.361Z,4.57
2019-03-28T14:37:53.640Z,5.57
2019-03-28T14:40:25.311Z,5.50
2019-03-28T14:42:55.013Z,5.23
2019-03-28T14:45:24.166Z,4.83
2019-03-28T14:47:53.650Z,7.37
2019-03-28T14:50:25.970Z,8.33
2019-03-28T14:52:55.513Z,7.67
2019-03-28T14:55:25.978Z,6.07
2019-03-28T14:57:55.843Z,4.80
2019-03-28T15:00:41.910Z,5.43
2019-03-28T15:03:24.509Z,6.80
2019-03-28T15:05:42.034Z,5.37
2019-03-28T15:08:11.483Z,5.10
2019-03-28T15:10:42.170Z,4.60
2019-03-28T15:13:13.341Z,3.80
2019-03-28T15:15:42.927Z,4.67
2019-03-28T15:18:12.561Z,4.13
2019-03-28T15:20:41.802Z,3.23
2019-03-28T15:23:12.690Z,3.40
2019-03-28T15:25:43.466Z,5.10
2019-03-28T15:28:13.148Z,5.77
2019-03-28T15:30:44.189Z,5.23
2019-03-28T15:33:13.817Z,5.40
2019-03-28T15:35:43.500Z,5.30
2019-03-28T15:38:13.641Z,5.13
2019-03-28T15:40:43.208Z,5.40
2019-03-28T15:43:12.405Z,5.43
2019-03-28T15:45:44.255Z,8.33
2019-03-28T15:48:14.317Z,5.77
2019-03-28T15:50:43.823Z,6.60
2019-03-28T15:53:13.552Z,5.70
2019-03-28T15:55:43.910Z,5.57
2019-03-28T15:58:23.251Z,5.80
2019-03-28T16:00:45.464Z,6.77
2019-03-28T16:03:15.113Z,6.50
2019-03-28T16:05:57.677Z,7.87
2019-03-28T16:08:15.916Z,6.83
2019-03-28T16:10:45.711Z,7.23
2019-03-28T16:13:15.611Z,6.47
2019-03-28T16:15:45.167Z,7.47
2019-03-28T16:18:14.827Z,7.23
2019-03-28T16:20:44.669Z,7.57
2019-03-28T16:23:14.329Z,7.57
2019-03-28T16:25:44.127Z,7.30
2019-03-28T16:28:14.124Z,7.23
2019-03-28T16:30:45.851Z,8.40
2019-03-28T16:33:17.424Z,8.13
2019-03-28T16:35:46.506Z,8.63
2019-03-28T16:38:15.701Z,7.67
2019-03-28T16:40:45.391Z,8.00
2019-03-28T16:43:14.979Z,8.57
2019-03-28T16:45:44.521Z,8.40
2019-03-28T16:48:14.119Z,8.37
2019-03-28T16:50:44.545Z,8.07
2019-03-28T16:53:14.066Z,8.83
2019-03-28T16:55:43.363Z,8.57
2019-03-28T16:58:13.536Z,9.17
2019-03-28T17:00:45.989Z,8.90
2019-03-28T17:03:15.855Z,8.93
2019-03-28T17:05:47.265Z,9.70
2019-03-28T17:08:17.797Z,10.00
2019-03-28T17:10:51.568Z,9.50
2019-03-28T17:13:20.965Z,9.67
2019-03-28T17:15:51.184Z,10.17
2019-03-28T17:18:20.765Z,11.03
2019-03-28T17:20:50.513Z,10.43
2019-03-28T17:23:20.209Z,10.80
2019-03-28T17:25:49.747Z,10.83
2019-03-28T17:28:19.639Z,10.20
2019-03-28T17:30:51.471Z,10.23
2019-03-28T17:33:21.284Z,11.30
2019-03-28T17:35:51.125Z,10.67
2019-03-28T17:38:20.819Z,11.50
2019-03-28T17:40:50.142Z,10.43
2019-03-28T17:43:19.821Z,9.87
2019-03-28T17:45:49.222Z,9.70
2019-03-28T17:48:18.513Z,11.47
2019-03-28T17:50:49.368Z,10.27
2019-03-28T17:53:19.512Z,10.37
2019-03-28T17:55:48.993Z,10.60
2019-03-28T17:58:21.242Z,9.93
2019-03-28T18:00:50.501Z,10.23
2019-03-28T18:03:30.480Z,11.27
2019-03-28T18:05:57.928Z,10.47
2019-03-28T18:08:21.265Z,10.40
2019-03-28T18:10:50.962Z,10.43
2019-03-28T18:13:23.362Z,11.13
2019-03-28T18:15:52.787Z,10.47
2019-03-28T18:18:22.064Z,10.60
2019-03-28T18:20:53.594Z,10.90
2019-03-28T18:23:23.694Z,11.20
2019-03-28T18:25:53.530Z,10.93
2019-03-28T18:28:22.779Z,11.47
2019-03-28T18:30:53.824Z,11.43
2019-03-28T18:33:23.998Z,11.67
2019-03-28T18:35:53.954Z,9.73
2019-03-28T18:38:23.296Z,10.83
2019-03-28T18:40:52.438Z,10.20
2019-03-28T18:43:21.771Z,11.00
2019-03-28T18:45:51.016Z,11.10
2019-03-28T18:48:28.213Z,11.03
2019-03-28T18:50:51.995Z,10.00
2019-03-28T18:53:22.020Z,10.73
2019-03-28T18:55:54.245Z,10.30
2019-03-28T18:58:24.155Z,10.60
2019-03-28T19:00:53.795Z,10.00
2019-03-28T19:03:24.003Z,11.13
2019-03-28T19:05:53.379Z,11.23
2019-03-28T19:08:22.998Z,10.63
2019-03-28T19:10:52.633Z,10.80
2019-03-28T19:13:23.361Z,10.40
2019-03-28T19:15:52.717Z,10.37
2019-03-28T19:18:24.031Z,10.70
2019-03-28T19:20:53.052Z,10.53
2019-03-28T19:23:23.101Z,10.60
2019-03-28T19:25:52.501Z,9.67
2019-03-28T19:28:28.616Z,10.70
2019-03-28T19:30:52.810Z,10.93
2019-03-28T19:33:22.165Z,10.07
2019-03-28T19:35:52.245Z,11.10
2019-03-28T19:38:21.671Z,9.67
2019-03-28T19:40:51.077Z,10.40
2019-03-28T19:43:22.784Z,11.03
2019-03-28T19:45:51.724Z,10.50
2019-03-28T19:48:21.356Z,10.37
2019-03-28T19:50:51.407Z,13.90
2019-03-28T19:53:20.779Z,11.50
2019-03-28T19:55:50.148Z,11.30
2019-03-28T19:58:19.582Z,11.37
2019-03-28T20:00:50.318Z,11.57
2019-03-28T20:03:23.039Z,12.13
2019-03-28T20:05:50.984Z,11.10
2019-03-28T20:08:20.682Z,12.57
2019-03-28T20:10:50.277Z,12.13
2019-03-28T20:13:19.929Z,11.67
2019-03-28T20:15:49.503Z,11.70
2019-03-28T20:18:20.244Z,11.83
2019-03-28T20:20:49.782Z,12.73
2019-03-28T20:23:19.158Z,12.47
2019-03-28T20:25:48.562Z,12.00
2019-03-28T20:28:26.562Z,11.73
2019-03-28T20:30:54.710Z,12.13
2019-03-28T20:33:26.029Z,12.47
2019-03-28T20:36:18.497Z,12.87
2019-03-28T20:38:29.781Z,11.70
2019-03-28T20:40:59.417Z,12.10
2019-03-28T20:43:28.920Z,11.33
2019-03-28T20:45:58.215Z,11.83
2019-03-28T20:48:28.620Z,12.73
2019-03-28T20:50:58.071Z,17.43
2019-03-28T20:53:27.709Z,16.00
2019-03-28T20:55:57.494Z,11.00
2019-03-28T20:58:27.078Z,11.53
2019-03-28T21:00:56.473Z,12.67
2019-03-28T21:03:29.018Z,11.57
2019-03-28T21:06:14.270Z,12.07
2019-03-28T21:08:32.554Z,12.57
2019-03-28T21:11:07.947Z,12.70
2019-03-28T21:13:37.625Z,11.70
2019-03-28T21:16:07.658Z,12.93
2019-03-28T21:18:37.637Z,13.30
2019-03-28T21:21:07.313Z,12.53
2019-03-28T21:23:37.274Z,13.07
2019-03-28T21:26:07.897Z,13.07
2019-03-28T21:28:46.946Z,13.57
2019-03-28T21:31:08.458Z,12.90
2019-03-28T21:33:40.251Z,12.90
2019-03-28T21:36:09.725Z,12.83
2019-03-28T21:38:39.614Z,13.43
2019-03-28T21:41:09.833Z,13.73
2019-03-28T21:43:39.254Z,13.43
2019-03-28T21:46:08.933Z,14.00
2019-03-28T21:48:40.711Z,14.93
2019-03-28T21:51:11.648Z,16.33
2019-03-28T21:53:41.294Z,15.57
2019-03-28T21:56:14.148Z,14.90
2019-03-28T21:58:43.380Z,15.00
2019-03-28T22:01:13.557Z,15.20
2019-03-28T22:03:48.054Z,14.87
2019-03-28T22:06:17.499Z,15.40
2019-03-28T22:08:52.098Z,14.30
2019-03-28T22:11:20.958Z,15.17
2019-03-28T22:13:50.636Z,14.67
2019-03-28T22:16:20.814Z,15.37
2019-03-28T22:18:50.276Z,14.20
2019-03-28T22:21:19.567Z,14.40
2019-03-28T22:23:48.880Z,14.50
2019-03-28T22:26:18.193Z,15.10
2019-03-28T22:28:47.891Z,14.00
2019-03-28T22:31:17.253Z,14.87
2019-03-28T22:33:47.119Z,14.20
2019-03-28T22:36:17.862Z,17.80
2019-03-28T22:38:47.610Z,16.30
2019-03-28T22:41:18.909Z,16.47
2019-03-28T22:43:48.305Z,16.67
2019-03-28T22:46:18.051Z,16.30
2019-03-28T22:48:47.783Z,17.00
2019-03-28T22:51:17.351Z,16.80
2019-03-28T22:53:46.852Z,17.17
2019-03-28T22:56:20.070Z,17.17
2019-03-28T22:58:52.322Z,15.93
2019-03-28T23:01:23.224Z,15.17
2019-03-28T23:03:52.780Z,14.57
2019-03-28T23:06:24.477Z,13.60
2019-03-28T23:08:54.516Z,12.80
2019-03-28T23:11:25.404Z,13.23
2019-03-28T23:13:54.809Z,13.70
2019-03-28T23:16:24.978Z,13.80
2019-03-28T23:18:54.926Z,14.07
2019-03-28T23:21:24.614Z,13.13
2019-03-28T23:23:54.394Z,13.13
2019-03-28T23:26:24.325Z,12.77
2019-03-28T23:28:54.032Z,13.40
2019-03-28T23:31:23.816Z,13.63
2019-03-28T23:33:53.647Z,13.60
2019-03-28T23:36:23.138Z,13.03
2019-03-28T23:38:58.118Z,13.13
2019-03-28T23:41:27.948Z,12.50
2019-03-28T23:43:57.315Z,13.07
2019-03-28T23:46:26.840Z,13.77
2019-03-28T23:48:56.323Z,13.17
2019-03-28T23:51:25.853Z,13.83
2019-03-28T23:53:55.429Z,14.67
2019-03-28T23:56:25.279Z,13.90
2019-03-28T23:58:54.860Z,13.93
